createdAt,value
2023-04-18T00:00:40.246Z,101501.00
2023-04-18T00:03:10.116Z,101502.84
2023-04-18T00:05:38.965Z,101496.88
2023-04-18T00:08:06.911Z,101505.44
2023-04-18T00:10:34.776Z,101495.78
2023-04-18T00:13:02.147Z,101498.47
2023-04-18T00:15:32.625Z,101485.50
2023-04-18T00:18:05.035Z,101487.06
2023-04-18T00:20:33.605Z,101484.59
2023-04-18T00:23:02.633Z,101481.13
2023-04-18T00:25:33.101Z,101487.13
2023-04-18T00:28:03.340Z,101480.16
2023-04-18T00:30:34.236Z,101483.44
2023-04-18T00:33:07.003Z,101481.94
2023-04-18T00:35:34.630Z,101474.91
2023-04-18T00:38:02.989Z,101480.13
2023-04-18T00:40:32.212Z,101474.19
2023-04-18T00:43:01.297Z,101480.13
2023-04-18T00:45:28.699Z,101471.56
2023-04-18T00:47:58.356Z,101465.47
2023-04-18T00:50:27.062Z,101461.69
2023-04-18T00:52:56.402Z,101468.78
2023-04-18T00:55:24.967Z,101459.19
2023-04-18T00:57:58.770Z,101458.38
2023-04-18T01:00:26.854Z,101453.19
2023-04-18T01:02:56.176Z,101449.56
2023-04-18T01:05:28.725Z,101443.66
2023-04-18T01:08:01.519Z,101445.41
2023-04-18T01:10:31.311Z,101437.50
2023-04-18T01:13:15.565Z,101435.59
2023-04-18T01:15:52.049Z,101438.84
2023-04-18T01:18:23.860Z,101439.91
2023-04-18T01:20:53.989Z,101434.81
2023-04-18T01:23:21.777Z,101436.34
2023-04-18T01:25:49.800Z,101435.44
2023-04-18T01:28:19.978Z,101426.06
2023-04-18T01:30:48.898Z,101421.75
2023-04-18T01:33:16.651Z,101421.06
2023-04-18T01:35:47.435Z,101419.78
2023-04-18T01:38:15.979Z,101423.38
2023-04-18T01:40:43.503Z,101416.44
2023-04-18T01:43:10.830Z,101422.47
2023-04-18T01:45:41.580Z,101419.75
2023-04-18T01:48:12.705Z,101417.41
2023-04-18T01:50:42.198Z,101417.97
2023-04-18T01:53:11.134Z,101424.00
2023-04-18T01:55:39.191Z,101419.63
2023-04-18T01:58:07.778Z,101416.19
2023-04-18T02:00:41.790Z,101422.25
2023-04-18T02:03:10.192Z,101419.75
2023-04-18T02:05:37.749Z,101427.59
2023-04-18T02:08:07.422Z,101430.03
2023-04-18T02:10:36.361Z,101429.34
2023-04-18T02:13:05.055Z,101422.09
2023-04-18T02:15:32.870Z,101427.47
2023-04-18T02:18:03.673Z,101421.44
2023-04-18T02:20:35.638Z,101426.53
2023-04-18T02:23:04.182Z,101419.59
2023-04-18T02:25:31.582Z,101418.88
2023-04-18T02:27:59.822Z,101419.88
2023-04-18T02:30:31.455Z,101415.25
2023-04-18T02:33:02.812Z,101411.84
2023-04-18T02:35:30.257Z,101410.88
2023-04-18T02:37:57.539Z,101411.63
2023-04-18T02:40:24.819Z,101403.78
2023-04-18T02:42:52.189Z,101401.38
2023-04-18T02:45:22.224Z,101404.06
2023-04-18T02:47:55.212Z,101400.53
2023-04-18T02:50:27.452Z,101407.69
2023-04-18T02:52:56.906Z,101402.41
2023-04-18T02:55:30.238Z,101395.19
2023-04-18T02:58:00.152Z,101397.19
2023-04-18T03:00:49.813Z,101391.09
2023-04-18T03:03:48.053Z,101396.31
2023-04-18T03:06:35.938Z,101390.28
2023-04-18T03:09:21.303Z,101387.69
2023-04-18T03:11:58.369Z,101392.13
2023-04-18T03:14:31.270Z,101388.47
2023-04-18T03:17:01.901Z,101385.03
2023-04-18T03:19:35.784Z,101378.88
2023-04-18T03:22:10.429Z,101388.44
2023-04-18T03:24:45.851Z,101377.00
2023-04-18T03:27:14.994Z,101362.44
2023-04-18T03:29:44.578Z,101377.97
2023-04-18T03:32:13.677Z,101380.66
2023-04-18T03:35:01.866Z,101372.66
2023-04-18T03:37:37.980Z,101375.25
2023-04-18T03:40:18.499Z,101376.97
2023-04-18T03:43:03.215Z,101378.78
2023-04-18T03:45:34.388Z,101371.84
2023-04-18T03:48:01.877Z,101370.94
2023-04-18T03:50:31.454Z,101372.66
2023-04-18T03:53:01.791Z,101370.16
2023-04-18T03:55:34.123Z,101369.25
2023-04-18T03:58:12.773Z,101366.53
2023-04-18T04:00:48.685Z,101365.59
2023-04-18T04:03:25.112Z,101366.47
2023-04-18T04:05:55.576Z,101365.47
2023-04-18T04:08:25.490Z,101362.91
2023-04-18T04:11:02.689Z,101352.19
2023-04-18T04:13:33.224Z,101354.97
2023-04-18T04:16:08.719Z,101356.91
2023-04-18T04:18:48.453Z,101351.56
2023-04-18T04:21:21.148Z,101356.00
2023-04-18T04:23:54.895Z,101362.91
2023-04-18T04:26:33.878Z,101359.59
2023-04-18T04:29:06.662Z,101356.94
2023-04-18T04:31:39.445Z,101362.13
2023-04-18T04:34:09.192Z,101365.78
2023-04-18T04:36:43.418Z,101371.00
2023-04-18T04:39:14.062Z,101366.56
2023-04-18T04:42:07.543Z,101373.66
2023-04-18T04:44:53.266Z,101365.78
2023-04-18T04:47:27.272Z,101362.19
2023-04-18T04:50:00.326Z,101370.88
2023-04-18T04:52:43.344Z,101372.66
2023-04-18T04:55:13.946Z,101376.94
2023-04-18T04:57:45.224Z,101369.84
2023-04-18T05:00:52.863Z,101372.66
2023-04-18T05:03:22.654Z,101371.88
2023-04-18T05:05:53.188Z,101368.28
2023-04-18T05:08:22.765Z,101369.72
2023-04-18T05:10:51.666Z,101372.03
2023-04-18T05:13:22.197Z,101374.88
2023-04-18T05:15:57.045Z,101373.78
2023-04-18T05:18:24.539Z,101368.94
2023-04-18T05:20:57.153Z,101371.44
2023-04-18T05:23:27.839Z,101374.88
2023-04-18T05:26:03.142Z,101376.41
2023-04-18T05:28:32.334Z,101374.91
2023-04-18T05:31:07.983Z,101377.34
2023-04-18T05:33:56.102Z,101380.75
2023-04-18T05:36:38.238Z,101381.78
2023-04-18T05:39:13.214Z,101386.41
2023-04-18T05:41:40.746Z,101386.44
2023-04-18T05:44:11.228Z,101389.66
2023-04-18T05:46:38.677Z,101395.59
2023-04-18T05:49:06.027Z,101399.81
2023-04-18T05:52:06.585Z,101394.72
2023-04-18T05:54:42.049Z,101391.06
2023-04-18T05:57:22.387Z,101398.19
2023-04-18T06:02:53.635Z,101397.66
2023-04-18T06:05:26.237Z,101403.91
2023-04-18T06:07:53.928Z,101396.19
2023-04-18T06:10:39.159Z,101397.91
2023-04-18T06:13:12.186Z,101408.84
2023-04-18T06:15:44.205Z,101397.09
2023-04-18T06:18:13.876Z,101400.66
2023-04-18T06:23:49.441Z,101408.00
2023-04-18T06:26:32.875Z,101402.81
2023-04-18T06:29:11.810Z,101407.31
2023-04-18T06:32:05.338Z,101402.97
2023-04-18T06:34:40.244Z,101403.09
2023-04-18T06:37:36.320Z,101402.31
2023-04-18T06:40:24.458Z,101405.00
2023-04-18T06:43:07.458Z,101406.00
2023-04-18T06:45:48.001Z,101404.34
2023-04-18T06:48:20.924Z,101419.31
2023-04-18T06:50:53.688Z,101408.84
2023-04-18T06:53:30.722Z,101415.84
2023-04-18T06:56:08.642Z,101408.88
2023-04-18T06:58:53.047Z,101415.94
2023-04-18T07:04:28.852Z,101423.09
2023-04-18T07:06:59.500Z,101420.47
2023-04-18T07:09:27.338Z,101424.06
2023-04-18T07:12:06.016Z,101422.31
2023-04-18T07:14:34.299Z,101419.69
2023-04-18T07:17:08.265Z,101418.81
2023-04-18T07:19:35.530Z,101418.94
2023-04-18T07:22:02.811Z,101423.31
2023-04-18T07:24:30.411Z,101422.53
2023-04-18T07:26:57.870Z,101412.91
2023-04-18T07:29:26.671Z,101412.03
2023-04-18T07:34:49.849Z,101408.66
2023-04-18T07:37:28.894Z,101412.22
2023-04-18T07:39:56.021Z,101414.00
2023-04-18T07:42:27.482Z,101410.56
2023-04-18T07:45:13.293Z,101410.50
2023-04-18T07:47:40.618Z,101410.50
2023-04-18T07:50:08.885Z,101424.56
2023-04-18T07:52:37.459Z,101415.81
2023-04-18T07:55:18.125Z,101419.25
2023-04-18T07:57:53.443Z,101424.56
2023-04-18T08:00:21.057Z,101425.25
2023-04-18T08:02:56.240Z,101425.28
2023-04-18T08:05:30.119Z,101418.50
2023-04-18T08:07:58.034Z,101423.78
2023-04-18T08:10:26.000Z,101434.50
2023-04-18T08:12:54.107Z,101427.47
2023-04-18T08:15:22.562Z,101428.38
2023-04-18T08:17:53.257Z,101422.47
2023-04-18T08:20:26.074Z,101423.44
2023-04-18T08:23:06.103Z,101427.03
2023-04-18T08:25:36.820Z,101419.16
2023-04-18T08:28:04.539Z,101418.28
2023-04-18T08:30:34.802Z,101418.31
2023-04-18T08:33:04.727Z,101427.06
2023-04-18T08:35:32.156Z,101419.16
2023-04-18T08:37:59.559Z,101422.63
2023-04-18T08:40:32.862Z,101425.28
2023-04-18T08:43:12.912Z,101423.56
2023-04-18T08:46:00.217Z,101427.94
2023-04-18T08:48:36.548Z,101436.63
2023-04-18T08:51:29.839Z,101428.78
2023-04-18T08:53:57.668Z,101435.84
2023-04-18T08:56:31.175Z,101436.72
2023-04-18T08:59:01.696Z,101431.31
2023-04-18T09:01:56.940Z,101433.22
2023-04-18T09:04:41.258Z,101431.44
2023-04-18T09:07:11.356Z,101434.94
2023-04-18T09:09:56.523Z,101437.63
2023-04-18T09:12:32.809Z,101448.13
2023-04-18T09:15:14.489Z,101441.13
2023-04-18T09:17:59.211Z,101444.63
2023-04-18T09:20:41.749Z,101437.59
2023-04-18T09:23:11.592Z,101444.63
2023-04-18T09:25:46.871Z,101435.84
2023-04-18T09:28:33.976Z,101446.38
2023-04-18T09:33:15.882Z,101443.75
2023-04-18T09:35:44.010Z,101445.50
2023-04-18T09:38:11.265Z,101448.13
2023-04-18T09:40:38.885Z,101444.63
2023-04-18T09:43:21.742Z,101441.97
2023-04-18T09:45:49.394Z,101449.91
2023-04-18T09:48:16.554Z,101440.25
2023-04-18T09:50:48.616Z,101447.25
2023-04-18T09:53:32.920Z,101444.63
2023-04-18T09:56:28.107Z,101448.88
2023-04-18T10:03:23.603Z,101452.38
2023-04-18T10:06:02.757Z,101453.28
2023-04-18T10:08:38.179Z,101461.97
2023-04-18T10:11:18.010Z,101449.75
2023-04-18T10:14:06.354Z,101453.41
2023-04-18T10:16:45.230Z,101441.00
2023-04-18T10:19:38.582Z,101436.63
2023-04-18T10:22:36.865Z,101441.91
2023-04-18T10:25:12.337Z,101434.81
2023-04-18T10:27:59.316Z,101433.97
2023-04-18T10:34:03.139Z,101432.19
2023-04-18T10:37:19.500Z,101436.53
2023-04-18T10:40:46.039Z,101425.28
2023-04-18T10:43:22.561Z,101414.78
2023-04-18T10:46:31.740Z,101414.75
2023-04-18T10:49:45.760Z,101425.31
2023-04-18T10:52:41.986Z,101423.56
2023-04-18T10:55:17.813Z,101427.00
2023-04-18T10:57:54.817Z,101430.50
2023-04-18T11:00:24.036Z,101422.69
2023-04-18T11:02:54.169Z,101430.56
2023-04-18T11:05:34.206Z,101421.78
2023-04-18T11:11:03.473Z,101425.22
2023-04-18T11:13:39.362Z,101420.03
2023-04-18T11:16:32.569Z,101419.13
2023-04-18T11:19:00.524Z,101419.13
2023-04-18T11:21:32.132Z,101423.47
2023-04-18T11:24:08.054Z,101423.47
2023-04-18T11:27:07.207Z,101420.06
2023-04-18T11:29:54.761Z,101423.47
2023-04-18T11:32:40.770Z,101420.03
2023-04-18T11:35:27.701Z,101417.44
2023-04-18T11:37:59.217Z,101413.88
2023-04-18T11:40:54.593Z,101409.28
2023-04-18T11:43:26.107Z,101401.19
2023-04-18T11:45:59.632Z,101394.06
2023-04-18T11:49:07.431Z,101397.56
2023-04-18T11:52:08.034Z,101391.13
2023-04-18T11:55:19.355Z,101398.47
2023-04-18T11:58:04.729Z,101393.09
2023-04-18T12:00:44.403Z,101396.75
2023-04-18T12:03:40.797Z,101383.44
2023-04-18T12:06:58.392Z,101385.06
2023-04-18T12:10:00.732Z,101390.50
2023-04-18T12:13:07.749Z,101388.00
2023-04-18T12:15:50.808Z,101389.94
2023-04-18T12:18:47.060Z,101388.53
2023-04-18T12:24:35.793Z,101392.81
2023-04-18T12:27:35.245Z,101394.78
2023-04-18T12:30:51.046Z,101401.84
2023-04-18T12:33:51.454Z,101389.56
2023-04-18T12:36:24.204Z,101395.19
2023-04-18T12:39:11.730Z,101385.63
2023-04-18T12:41:42.233Z,101391.97
2023-04-18T12:44:35.927Z,101394.78
2023-04-18T12:47:09.194Z,101404.75
2023-04-18T12:49:59.623Z,101406.75
2023-04-18T12:53:03.100Z,101407.63
2023-04-18T12:55:56.729Z,101396.16
2023-04-18T12:58:42.540Z,101391.47
2023-04-18T13:01:34.452Z,101400.09
2023-04-18T13:04:18.177Z,101391.44
2023-04-18T13:06:56.503Z,101395.34
2023-04-18T13:09:46.654Z,101408.41
2023-04-18T13:12:37.323Z,101404.50
2023-04-18T13:15:30.729Z,101414.56
2023-04-18T13:18:18.272Z,101405.00
2023-04-18T13:21:09.702Z,101401.09
2023-04-18T13:23:46.127Z,101400.34
2023-04-18T13:26:30.707Z,101394.56
2023-04-18T13:29:28.372Z,101392.94
2023-04-18T13:32:31.838Z,101386.75
2023-04-18T13:35:23.473Z,101391.47
2023-04-18T13:38:12.553Z,101395.28
2023-04-18T13:41:10.966Z,101405.34
2023-04-18T13:44:00.056Z,101401.38
2023-04-18T13:47:06.402Z,101387.97
2023-04-18T13:49:57.004Z,101400.63
2023-04-18T13:52:56.230Z,101385.63
2023-04-18T13:55:34.955Z,101389.28
2023-04-18T13:58:28.032Z,101391.97
2023-04-18T14:01:22.261Z,101391.97
2023-04-18T14:04:11.413Z,101391.94
2023-04-18T14:06:50.426Z,101391.97
2023-04-18T14:09:30.351Z,101387.56
2023-04-18T14:12:14.383Z,101379.66
2023-04-18T14:18:01.323Z,101391.06
2023-04-18T14:20:37.467Z,101381.38
2023-04-18T14:26:40.580Z,101375.25
2023-04-18T14:32:41.460Z,101382.28
2023-04-18T14:35:20.825Z,101377.06
2023-04-18T14:38:19.555Z,101377.91
2023-04-18T14:41:15.544Z,101377.03
2023-04-18T14:44:07.581Z,101379.69
2023-04-18T14:47:08.050Z,101377.06
2023-04-18T14:50:13.043Z,101370.91
2023-04-18T14:53:15.688Z,101384.03
2023-04-18T14:56:13.887Z,101384.94
2023-04-18T14:59:00.282Z,101378.81
2023-04-18T15:01:52.578Z,101387.41
2023-04-18T15:04:50.529Z,101386.47
2023-04-18T15:07:38.030Z,101389.75
2023-04-18T15:10:37.614Z,101392.41
2023-04-18T15:13:25.586Z,101384.78
2023-04-18T15:16:12.850Z,101387.41
2023-04-18T15:18:50.997Z,101388.25
2023-04-18T15:21:43.582Z,101379.69
2023-04-18T15:24:38.824Z,101394.41
2023-04-18T15:27:41.832Z,101398.72
2023-04-18T15:30:29.193Z,101399.56
2023-04-18T15:33:15.975Z,101396.84
2023-04-18T15:36:14.866Z,101389.19
2023-04-18T15:39:26.747Z,101396.78
2023-04-18T15:42:24.959Z,101400.28
2023-04-18T15:45:16.727Z,101391.63
2023-04-18T15:51:09.382Z,101400.34
2023-04-18T15:54:16.299Z,101398.81
2023-04-18T15:57:17.372Z,101404.16
2023-04-18T15:59:54.860Z,101406.03
2023-04-18T16:02:29.866Z,101399.97
2023-04-18T16:05:28.695Z,101405.16
2023-04-18T16:08:27.503Z,101406.19
2023-04-18T16:11:20.252Z,101407.72
2023-04-18T16:13:51.043Z,101410.41
2023-04-18T16:16:28.643Z,101419.97
2023-04-18T16:19:06.044Z,101410.81
2023-04-18T16:21:41.784Z,101411.78
2023-04-18T16:24:31.362Z,101416.09
2023-04-18T16:27:22.188Z,101416.97
2023-04-18T16:30:13.429Z,101408.00
2023-04-18T16:32:52.148Z,101413.38
2023-04-18T16:35:47.360Z,101411.47
2023-04-18T16:38:48.434Z,101409.94
2023-04-18T16:41:50.112Z,101415.75
2023-04-18T16:44:45.565Z,101400.22
2023-04-18T16:50:40.914Z,101406.56
2023-04-18T16:53:15.784Z,101406.69
2023-04-18T16:56:01.173Z,101413.44
2023-04-18T16:58:36.146Z,101404.81
2023-04-18T17:01:16.965Z,101414.47
2023-04-18T17:03:56.527Z,101418.25
2023-04-18T17:06:59.195Z,101415.00
2023-04-18T17:09:42.922Z,101408.75
2023-04-18T17:12:32.890Z,101410.38
2023-04-18T17:15:12.805Z,101410.63
2023-04-18T17:18:01.457Z,101416.09
2023-04-18T17:20:48.529Z,101403.72
2023-04-18T17:23:30.357Z,101413.06
2023-04-18T17:26:07.301Z,101408.97
2023-04-18T17:28:59.367Z,101409.22
2023-04-18T17:32:02.482Z,101412.78
2023-04-18T17:35:06.736Z,101409.09
2023-04-18T17:37:56.545Z,101416.13
2023-04-18T17:41:05.088Z,101409.75
2023-04-18T17:43:58.488Z,101407.13
2023-04-18T17:47:01.639Z,101422.19
2023-04-18T17:49:52.466Z,101418.84
2023-04-18T17:53:04.693Z,101412.63
2023-04-18T17:55:59.535Z,101424.06
2023-04-18T17:58:56.550Z,101427.50
2023-04-18T18:01:35.374Z,101432.03
2023-04-18T18:04:30.677Z,101442.16
2023-04-18T18:07:13.208Z,101449.75
2023-04-18T18:10:25.981Z,101442.06
2023-04-18T18:13:14.329Z,101453.28
2023-04-18T18:16:07.355Z,101442.97
2023-04-18T18:18:57.084Z,101444.03
2023-04-18T18:21:56.122Z,101447.13
2023-04-18T18:24:53.035Z,101438.03
2023-04-18T18:27:50.371Z,101444.72
2023-04-18T18:30:46.510Z,101449.03
2023-04-18T18:33:22.804Z,101451.78
2023-04-18T18:36:13.247Z,101456.94
2023-04-18T18:39:04.485Z,101455.91
2023-04-18T18:41:50.159Z,101464.63
2023-04-18T18:44:35.945Z,101460.78
2023-04-18T18:47:21.643Z,101464.44
2023-04-18T18:50:12.970Z,101467.75
2023-04-18T18:53:14.715Z,101470.84
2023-04-18T18:55:53.744Z,101474.13
2023-04-18T18:58:46.146Z,101471.59
2023-04-18T19:01:16.573Z,101472.06
2023-04-18T19:04:33.384Z,101474.91
2023-04-18T19:07:23.603Z,101477.81
2023-04-18T19:10:05.393Z,101479.69
2023-04-18T19:12:47.250Z,101478.78
2023-04-18T19:15:31.540Z,101488.19
2023-04-18T19:18:00.976Z,101493.91
2023-04-18T19:21:07.441Z,101499.97
2023-04-18T19:23:58.150Z,101506.28
2023-04-18T19:27:10.138Z,101506.19
2023-04-18T19:29:50.838Z,101510.78
2023-04-18T19:32:48.882Z,101513.34
2023-04-18T19:35:45.640Z,101514.22
2023-04-18T19:38:46.178Z,101516.81
2023-04-18T19:41:25.095Z,101518.00
2023-04-18T19:43:59.844Z,101521.72
2023-04-18T19:46:58.431Z,101526.19
2023-04-18T19:49:38.849Z,101529.00
2023-04-18T19:52:27.227Z,101529.13
2023-04-18T19:55:03.211Z,101530.19
2023-04-18T19:57:58.974Z,101535.56
2023-04-18T20:00:43.788Z,101538.06
2023-04-18T20:03:12.024Z,101539.09
2023-04-18T20:05:46.443Z,101544.16
2023-04-18T20:08:26.585Z,101552.50
2023-04-18T20:13:58.191Z,101549.88
2023-04-18T20:17:04.973Z,101553.44
2023-04-18T20:19:57.494Z,101563.97
2023-04-18T20:22:54.426Z,101557.91
2023-04-18T20:25:34.979Z,101564.03
2023-04-18T20:28:23.205Z,101562.28
2023-04-18T20:30:56.570Z,101561.59
2023-04-18T20:33:23.879Z,101562.53
2023-04-18T20:36:08.968Z,101572.16
2023-04-18T20:38:49.329Z,101573.53
2023-04-18T20:41:52.726Z,101569.16
2023-04-18T20:44:47.510Z,101572.59
2023-04-18T20:47:21.096Z,101577.06
2023-04-18T20:49:59.728Z,101578.91
2023-04-18T20:52:47.892Z,101582.25
2023-04-18T20:58:06.231Z,101585.53
2023-04-18T21:00:34.021Z,101589.63
2023-04-18T21:03:14.199Z,101595.56
2023-04-18T21:05:47.056Z,101594.88
2023-04-18T21:08:19.760Z,101601.75
2023-04-18T21:10:46.996Z,101587.78
2023-04-18T21:13:14.270Z,101586.06
2023-04-18T21:15:44.756Z,101594.81
2023-04-18T21:18:12.222Z,101593.75
2023-04-18T21:21:04.754Z,101595.00
2023-04-18T21:26:37.404Z,101599.06
2023-04-18T21:29:12.416Z,101601.75
2023-04-18T21:31:56.302Z,101592.69
2023-04-18T21:34:24.090Z,101598.97
2023-04-18T21:36:54.072Z,101599.88
2023-04-18T21:39:25.867Z,101597.22
2023-04-18T21:41:56.104Z,101604.44
2023-04-18T21:44:26.798Z,101602.00
2023-04-18T21:46:57.583Z,101603.00
2023-04-18T21:49:40.378Z,101601.41
2023-04-18T21:52:14.085Z,101598.78
2023-04-18T21:54:43.999Z,101597.22
2023-04-18T21:57:20.346Z,101600.44
2023-04-18T22:00:01.607Z,101599.69
2023-04-18T22:05:43.517Z,101604.66
2023-04-18T22:08:11.165Z,101602.94
2023-04-18T22:10:47.359Z,101600.44
2023-04-18T22:13:33.880Z,101597.06
2023-04-18T22:16:11.517Z,101607.13
2023-04-18T22:18:55.143Z,101602.66
2023-04-18T22:21:27.037Z,101599.81
2023-04-18T22:24:02.102Z,101600.06
2023-04-18T22:26:48.080Z,101603.00
2023-04-18T22:29:27.417Z,101609.81
2023-04-18T22:32:09.238Z,101602.06
2023-04-18T22:35:06.948Z,101601.69
2023-04-18T22:37:49.284Z,101605.31
2023-04-18T22:40:33.058Z,101607.06
2023-04-18T22:43:20.379Z,101599.25
2023-04-18T22:45:50.503Z,101597.59
2023-04-18T22:48:18.339Z,101601.97
2023-04-18T22:50:49.739Z,101600.75
2023-04-18T22:53:17.692Z,101600.97
2023-04-18T22:55:46.334Z,101597.56
2023-04-18T22:58:16.714Z,101594.84
2023-04-18T23:00:50.022Z,101597.63
2023-04-18T23:03:19.412Z,101599.44
2023-04-18T23:05:49.084Z,101602.84
2023-04-18T23:08:18.938Z,101599.44
2023-04-18T23:10:46.227Z,101599.34
2023-04-18T23:13:17.889Z,101604.41
2023-04-18T23:15:53.679Z,101601.00
2023-04-18T23:18:22.445Z,101595.56
2023-04-18T23:20:49.633Z,101599.91
2023-04-18T23:23:16.818Z,101607.72
2023-04-18T23:25:44.484Z,101610.38
2023-04-18T23:28:14.312Z,101613.06
2023-04-18T23:30:44.675Z,101607.69
2023-04-18T23:33:16.537Z,101606.72
2023-04-18T23:35:43.856Z,101604.13
2023-04-18T23:38:11.130Z,101601.59
2023-04-18T23:40:38.533Z,101605.00
2023-04-18T23:43:10.617Z,101595.47
2023-04-18T23:45:40.125Z,101597.22
2023-04-18T23:48:07.384Z,101594.50
2023-04-18T23:50:36.820Z,101603.31
2023-04-18T23:53:05.981Z,101597.94
2023-04-18T23:55:33.270Z,101599.72
2023-04-18T23:58:06.629Z,101597.91
